createdAt,value
2022-12-13T00:01:15.386Z,11.40
2022-12-13T00:03:42.321Z,11.80
2022-12-13T00:06:10.024Z,10.27
2022-12-13T00:08:36.879Z,10.43
2022-12-13T00:11:05.162Z,11.05
2022-12-13T00:13:32.109Z,10.35
2022-12-13T00:15:59.694Z,11.23
2022-12-13T00:18:26.681Z,10.93
2022-12-13T00:20:53.815Z,10.18
2022-12-13T00:23:21.900Z,10.85
2022-12-13T00:25:48.753Z,10.13
2022-12-13T00:28:15.657Z,9.40
2022-12-13T00:30:42.553Z,10.05
2022-12-13T00:33:09.384Z,10.57
2022-12-13T00:35:42.128Z,9.02
2022-12-13T00:38:09.028Z,11.15
2022-12-13T00:40:35.943Z,9.38
2022-12-13T00:43:02.765Z,9.38
2022-12-13T00:45:29.538Z,10.27
2022-12-13T00:47:56.434Z,11.15
2022-12-13T00:50:23.180Z,8.27
2022-12-13T00:52:49.972Z,9.48
2022-12-13T00:55:17.083Z,10.48
2022-12-13T00:57:44.033Z,9.48
2022-12-13T01:00:12.020Z,9.05
2022-12-13T01:02:38.929Z,9.85
2022-12-13T01:05:06.007Z,9.52
2022-12-13T01:07:32.815Z,9.25
2022-12-13T01:09:59.566Z,9.70
2022-12-13T01:12:26.433Z,12.13
2022-12-13T01:14:56.158Z,9.63
2022-12-13T01:17:23.573Z,10.27
2022-12-13T01:19:50.369Z,9.95
2022-12-13T01:22:17.126Z,10.07
2022-12-13T01:24:43.887Z,10.30
2022-12-13T01:27:10.834Z,10.70
2022-12-13T01:29:37.687Z,9.27
2022-12-13T01:32:04.727Z,8.52
2022-12-13T01:34:31.566Z,9.70
2022-12-13T01:36:58.972Z,8.90
2022-12-13T01:39:26.498Z,8.88
2022-12-13T01:42:00.028Z,8.40
2022-12-13T01:44:59.442Z,8.68
2022-12-13T01:47:35.749Z,8.85
2022-12-13T01:50:04.511Z,9.02
2022-12-13T01:52:31.813Z,8.75
2022-12-13T01:55:03.364Z,8.82
2022-12-13T01:57:31.496Z,9.85
2022-12-13T01:59:58.279Z,9.70
2022-12-13T02:02:25.050Z,10.23
2022-12-13T02:05:11.998Z,9.70
2022-12-13T02:07:38.969Z,10.43
2022-12-13T02:10:06.957Z,9.95
2022-12-13T02:12:35.304Z,10.50
2022-12-13T02:15:05.230Z,10.07
2022-12-13T02:17:48.786Z,10.23
2022-12-13T02:20:21.430Z,10.20
2022-12-13T02:23:16.561Z,10.73
2022-12-13T02:25:52.795Z,9.73
2022-12-13T02:28:31.370Z,9.80
2022-12-13T02:31:22.626Z,9.77
2022-12-13T02:34:01.919Z,9.15
2022-12-13T02:36:36.327Z,10.10
2022-12-13T02:39:30.201Z,9.15
2022-12-13T02:42:08.065Z,8.85
2022-12-13T02:45:09.917Z,9.15
2022-12-13T02:47:39.610Z,8.77
2022-12-13T02:50:07.480Z,9.60
2022-12-13T02:52:34.287Z,9.02
2022-12-13T02:55:01.634Z,8.40
2022-12-13T02:57:36.140Z,9.60
2022-12-13T03:00:41.595Z,9.30
2022-12-13T03:03:23.542Z,8.75
2022-12-13T03:10:07.158Z,8.73
2022-12-13T03:13:25.670Z,8.73
2022-12-13T03:16:00.339Z,8.27
2022-12-13T03:18:27.669Z,9.48
2022-12-13T03:20:57.002Z,7.95
2022-12-13T03:23:24.254Z,8.65
2022-12-13T03:25:57.323Z,8.50
2022-12-13T03:28:24.227Z,9.10
2022-12-13T03:30:51.154Z,9.13
2022-12-13T03:33:17.942Z,8.80
2022-12-13T03:35:45.709Z,9.30
2022-12-13T03:38:22.979Z,9.65
2022-12-13T03:40:54.350Z,8.55
2022-12-13T03:43:21.628Z,9.98
2022-12-13T03:45:49.813Z,8.40
2022-12-13T03:48:22.503Z,9.85
2022-12-13T03:53:22.325Z,9.02
2022-12-13T03:56:01.227Z,9.27
2022-12-13T03:58:34.681Z,10.25
2022-12-13T04:01:14.634Z,10.48
2022-12-13T04:03:43.840Z,10.40
2022-12-13T04:06:10.813Z,10.07
2022-12-13T04:08:37.886Z,9.13
2022-12-13T04:11:24.887Z,8.93
2022-12-13T04:13:53.113Z,9.60
2022-12-13T04:16:20.169Z,9.35
2022-12-13T04:18:47.219Z,9.95
2022-12-13T04:21:14.078Z,8.65
2022-12-13T04:23:40.827Z,8.77
2022-12-13T04:26:08.976Z,9.52
2022-12-13T04:28:35.787Z,9.45
2022-12-13T04:31:02.529Z,9.57
2022-12-13T04:33:29.330Z,9.07
2022-12-13T04:35:56.082Z,9.68
2022-12-13T04:38:22.851Z,9.43
2022-12-13T04:40:49.689Z,9.82
2022-12-13T04:43:16.479Z,9.57
2022-12-13T04:45:43.315Z,8.73
2022-12-13T04:48:10.164Z,8.57
2022-12-13T04:50:37.069Z,8.95
2022-12-13T04:53:03.849Z,9.10
2022-12-13T04:55:30.579Z,8.82
2022-12-13T04:57:57.382Z,8.45
2022-12-13T05:00:24.130Z,8.30
2022-12-13T05:02:51.018Z,8.88
2022-12-13T05:05:18.476Z,9.05
2022-12-13T05:07:45.644Z,9.00
2022-12-13T05:10:12.897Z,10.32
2022-12-13T05:12:59.589Z,8.55
2022-12-13T05:15:27.698Z,9.30
2022-12-13T05:17:54.469Z,8.70
2022-12-13T05:20:21.211Z,9.25
2022-12-13T05:22:51.499Z,8.20
2022-12-13T05:25:18.256Z,8.07
2022-12-13T05:27:45.049Z,8.57
2022-12-13T05:30:12.290Z,8.73
2022-12-13T05:32:42.694Z,8.93
2022-12-13T05:35:22.310Z,8.98
2022-12-13T05:37:53.449Z,7.35
2022-12-13T05:40:25.484Z,8.98
2022-12-13T05:42:52.304Z,8.45
2022-12-13T05:45:29.178Z,8.15
2022-12-13T05:47:55.933Z,8.07
2022-12-13T05:50:22.700Z,9.38
2022-12-13T05:52:49.738Z,8.90
2022-12-13T05:55:16.860Z,8.38
2022-12-13T05:57:49.986Z,8.60
2022-12-13T06:00:28.831Z,8.48
2022-12-13T06:02:56.524Z,8.48
2022-12-13T06:05:27.538Z,8.50
2022-12-13T06:07:57.621Z,9.85
2022-12-13T06:10:54.194Z,9.13
2022-12-13T06:13:42.318Z,9.68
2022-12-13T06:16:21.802Z,10.25
2022-12-13T06:18:50.716Z,10.38
2022-12-13T06:21:18.224Z,11.40
2022-12-13T06:23:45.101Z,10.27
2022-12-13T06:26:11.852Z,9.73
2022-12-13T06:28:38.660Z,11.20
2022-12-13T06:31:05.736Z,11.02
2022-12-13T06:33:36.591Z,10.90
2022-12-13T06:36:03.970Z,9.20
2022-12-13T06:38:32.333Z,8.90
2022-12-13T06:41:13.436Z,9.02
2022-12-13T06:43:44.327Z,8.85
2022-12-13T06:46:11.365Z,8.63
2022-12-13T06:48:40.516Z,9.80
2022-12-13T06:51:07.637Z,9.80
2022-12-13T06:53:36.296Z,9.73
2022-12-13T06:56:09.803Z,9.73
2022-12-13T06:58:36.833Z,9.77
2022-12-13T07:01:14.988Z,10.07
2022-12-13T07:03:50.549Z,9.88
2022-12-13T07:06:18.835Z,9.52
2022-12-13T07:08:48.815Z,10.45
2022-12-13T07:11:16.804Z,10.18
2022-12-13T07:13:43.875Z,9.70
2022-12-13T07:16:11.251Z,9.50
2022-12-13T07:18:38.322Z,74.93
2022-12-13T07:21:06.339Z,19.17
2022-12-13T07:23:34.423Z,9.70
2022-12-13T07:26:01.308Z,9.15
2022-12-13T07:28:28.148Z,9.13
2022-12-13T07:30:55.619Z,7.90
2022-12-13T07:33:22.903Z,8.40
2022-12-13T07:35:55.335Z,8.15
2022-12-13T07:38:22.501Z,8.50
2022-12-13T07:40:49.362Z,8.32
2022-12-13T07:43:16.466Z,8.07
2022-12-13T07:45:43.564Z,8.63
2022-12-13T07:48:10.445Z,8.68
2022-12-13T07:50:38.006Z,8.02
2022-12-13T07:54:11.380Z,8.18
2022-12-13T07:56:38.808Z,8.38
2022-12-13T07:59:05.770Z,8.10
2022-12-13T08:01:34.718Z,7.63
2022-12-13T08:04:02.561Z,8.48
2022-12-13T08:06:30.000Z,6.82
2022-12-13T08:08:57.311Z,7.28
2022-12-13T08:11:24.156Z,8.45
2022-12-13T08:13:51.075Z,8.68
2022-12-13T08:16:27.756Z,8.20
2022-12-13T08:19:03.162Z,8.52
2022-12-13T08:24:23.783Z,11.57
2022-12-13T08:26:50.567Z,11.85
2022-12-13T08:29:23.427Z,10.93
2022-12-13T08:34:37.365Z,10.45
2022-12-13T08:37:04.641Z,10.27
2022-12-13T08:39:37.311Z,9.63
2022-12-13T08:42:18.948Z,9.63
2022-12-13T08:44:50.865Z,9.68
2022-12-13T08:47:26.035Z,7.75
2022-12-13T08:50:02.971Z,8.35
2022-12-13T08:52:32.152Z,8.57
2022-12-13T08:55:12.264Z,9.35
2022-12-13T08:57:39.576Z,9.77
2022-12-13T09:00:07.190Z,10.38
2022-12-13T09:02:38.111Z,32.42
2022-12-13T09:05:09.108Z,20.63
2022-12-13T09:07:36.554Z,25.42
2022-12-13T09:10:37.975Z,24.77
2022-12-13T09:13:01.497Z,30.08
2022-12-13T09:15:29.569Z,27.02
2022-12-13T09:18:05.052Z,27.15
2022-12-13T09:20:40.863Z,26.10
2022-12-13T09:23:13.660Z,26.90
2022-12-13T09:26:05.561Z,25.88
2022-12-13T09:28:32.873Z,26.13
2022-12-13T09:31:00.195Z,27.08
2022-12-13T09:33:30.722Z,27.27
2022-12-13T09:35:58.203Z,22.08
2022-12-13T09:38:28.547Z,21.95
2022-12-13T09:40:58.564Z,21.63
2022-12-13T09:43:32.695Z,22.00
2022-12-13T09:46:13.395Z,22.80
2022-12-13T09:49:01.213Z,24.33
2022-12-13T09:51:43.676Z,24.00
2022-12-13T09:54:21.093Z,22.55
2022-12-13T09:56:51.480Z,23.63
2022-12-13T09:59:32.341Z,26.27
2022-12-13T10:02:04.062Z,24.13
2022-12-13T10:04:31.017Z,23.17
2022-12-13T10:06:59.636Z,26.38
2022-12-13T10:09:26.418Z,25.88
2022-12-13T10:11:53.743Z,24.48
2022-12-13T10:14:30.237Z,22.33
2022-12-13T10:16:58.211Z,21.65
2022-12-13T10:19:31.424Z,21.05
2022-12-13T10:24:36.938Z,22.73
2022-12-13T10:27:15.301Z,21.85
2022-12-13T10:29:57.693Z,22.85
2022-12-13T10:32:24.655Z,25.90
2022-12-13T10:34:51.447Z,23.50
2022-12-13T10:37:24.281Z,23.48
2022-12-13T10:39:51.130Z,18.90
2022-12-13T10:42:22.859Z,20.80
2022-12-13T10:45:23.756Z,20.67
2022-12-13T10:47:50.841Z,21.70
2022-12-13T10:50:26.178Z,22.55
2022-12-13T10:52:53.018Z,21.15
2022-12-13T10:55:30.153Z,23.33
2022-12-13T10:58:02.031Z,20.77
2022-12-13T11:00:38.663Z,19.33
2022-12-13T11:03:05.795Z,20.80
2022-12-13T11:05:34.028Z,21.60
2022-12-13T11:08:15.125Z,19.70
2022-12-13T11:10:42.111Z,21.17
2022-12-13T11:13:18.880Z,21.23
2022-12-13T11:15:45.692Z,20.25
2022-12-13T11:18:22.001Z,21.92
2022-12-13T11:21:00.496Z,20.95
2022-12-13T11:24:01.741Z,21.85
2022-12-13T11:26:29.358Z,22.73
2022-12-13T11:29:21.823Z,21.83
2022-12-13T11:32:01.847Z,19.20
2022-12-13T11:34:37.680Z,16.17
2022-12-13T11:37:19.365Z,17.90
2022-12-13T11:39:52.398Z,19.13
2022-12-13T11:42:41.311Z,19.77
2022-12-13T11:45:22.859Z,20.70
2022-12-13T11:47:59.978Z,22.25
2022-12-13T11:50:34.063Z,34.58
2022-12-13T11:53:21.585Z,21.33
2022-12-13T11:56:04.702Z,21.10
2022-12-13T11:59:01.980Z,22.55
2022-12-13T12:01:40.395Z,22.83
2022-12-13T12:04:21.763Z,28.33
2022-12-13T12:07:30.611Z,21.48
2022-12-13T12:09:56.014Z,23.10
2022-12-13T12:12:32.411Z,21.55
2022-12-13T12:15:15.864Z,24.08
2022-12-13T12:17:43.656Z,22.30
2022-12-13T12:20:13.146Z,25.33
2022-12-13T12:23:05.150Z,23.58
2022-12-13T12:25:47.907Z,22.65
2022-12-13T12:28:31.324Z,22.95
2022-12-13T12:31:08.716Z,27.83
2022-12-13T12:34:07.601Z,28.08
2022-12-13T12:36:52.989Z,27.60
2022-12-13T12:39:57.016Z,27.70
2022-12-13T12:43:15.909Z,28.75
2022-12-13T12:45:58.273Z,26.38
2022-12-13T12:49:12.326Z,28.00
2022-12-13T12:54:33.480Z,23.23
2022-12-13T12:57:23.761Z,18.35
2022-12-13T13:00:11.893Z,21.90
2022-12-13T13:02:48.158Z,22.10
2022-12-13T13:05:45.221Z,15.05
2022-12-13T13:08:47.686Z,14.02
2022-12-13T13:11:24.708Z,15.25
2022-12-13T13:14:01.908Z,17.17
2022-12-13T13:16:37.354Z,15.25
2022-12-13T13:19:04.201Z,19.35
2022-12-13T13:21:30.956Z,19.58
2022-12-13T13:24:11.939Z,13.13
2022-12-13T13:26:46.515Z,12.52
2022-12-13T13:29:28.631Z,12.52
2022-12-13T13:32:12.086Z,15.48
2022-12-13T13:34:43.572Z,17.10
2022-12-13T13:37:25.662Z,24.38
2022-12-13T13:39:55.689Z,25.10
2022-12-13T13:42:26.302Z,18.50
2022-12-13T13:45:19.254Z,20.73
2022-12-13T13:48:14.185Z,33.50
2022-12-13T13:51:08.648Z,14.30
2022-12-13T13:56:29.598Z,13.25
2022-12-13T13:59:14.858Z,16.08
2022-12-13T14:01:59.625Z,13.82
2022-12-13T14:05:06.120Z,15.90
2022-12-13T14:07:57.565Z,36.85
2022-12-13T14:10:26.539Z,16.08
2022-12-13T14:13:31.280Z,15.52
2022-12-13T14:16:39.341Z,17.67
2022-12-13T14:19:28.630Z,34.10
2022-12-13T14:22:14.025Z,24.13
2022-12-13T14:25:05.962Z,18.75
2022-12-13T14:28:04.625Z,17.92
2022-12-13T14:30:31.977Z,17.52
2022-12-13T14:32:58.841Z,19.50
2022-12-13T14:35:27.743Z,20.15
2022-12-13T14:38:05.170Z,16.88
2022-12-13T14:40:36.876Z,17.38
2022-12-13T14:43:03.790Z,19.02
2022-12-13T14:45:31.464Z,20.90
2022-12-13T14:48:03.598Z,17.75
2022-12-13T14:50:34.732Z,17.85
2022-12-13T14:53:03.329Z,16.38
2022-12-13T14:55:32.111Z,17.88
2022-12-13T14:57:59.999Z,19.13
2022-12-13T15:00:29.798Z,24.85
2022-12-13T15:02:59.882Z,19.48
2022-12-13T15:05:47.174Z,17.75
2022-12-13T15:08:18.956Z,22.75
2022-12-13T15:10:49.985Z,29.00
2022-12-13T15:13:29.640Z,25.60
2022-12-13T15:16:01.357Z,25.50
2022-12-13T15:18:31.150Z,25.02
2022-12-13T15:21:01.282Z,25.77
2022-12-13T15:23:48.942Z,26.17
2022-12-13T15:26:28.499Z,25.23
2022-12-13T15:28:58.274Z,24.95
2022-12-13T15:31:25.278Z,25.08
2022-12-13T15:33:52.091Z,24.83
2022-12-13T15:36:23.093Z,22.60
2022-12-13T15:38:57.255Z,23.58
2022-12-13T15:41:30.749Z,24.00
2022-12-13T15:44:02.777Z,21.65
2022-12-13T15:46:31.348Z,21.15
2022-12-13T15:49:01.951Z,20.83
2022-12-13T15:51:30.597Z,20.63
2022-12-13T15:54:05.339Z,20.67
2022-12-13T15:56:33.134Z,22.35
2022-12-13T15:59:00.084Z,20.48
2022-12-13T16:01:30.987Z,21.40
2022-12-13T16:03:58.034Z,21.08
2022-12-13T16:06:26.411Z,20.17
2022-12-13T16:08:58.513Z,20.98
2022-12-13T16:11:32.846Z,21.23
2022-12-13T16:14:26.471Z,27.45
2022-12-13T16:16:54.252Z,21.25
2022-12-13T16:19:21.266Z,22.42
2022-12-13T16:21:48.020Z,21.48
2022-12-13T16:24:14.834Z,53.35
2022-12-13T16:26:46.394Z,58.05
2022-12-13T16:29:16.333Z,38.10
2022-12-13T16:31:44.040Z,27.08
2022-12-13T16:34:10.936Z,26.42
2022-12-13T16:36:37.832Z,29.10
2022-12-13T16:39:05.519Z,35.60
2022-12-13T16:41:36.670Z,21.58
2022-12-13T16:44:04.073Z,17.45
2022-12-13T16:47:11.829Z,16.83
2022-12-13T16:49:22.581Z,14.95
2022-12-13T16:51:49.600Z,15.85
2022-12-13T16:54:17.612Z,15.80
2022-12-13T16:56:44.390Z,16.88
2022-12-13T16:59:16.493Z,17.48
2022-12-13T17:01:43.985Z,14.93
2022-12-13T17:04:15.177Z,20.73
2022-12-13T17:06:46.412Z,24.00
2022-12-13T17:09:13.208Z,26.10
2022-12-13T17:11:40.031Z,24.48
2022-12-13T17:14:07.002Z,25.30
2022-12-13T17:16:33.936Z,24.38
2022-12-13T17:19:00.817Z,26.60
2022-12-13T17:21:28.586Z,24.20
2022-12-13T17:23:56.359Z,23.00
2022-12-13T17:26:23.389Z,23.08
2022-12-13T17:28:50.330Z,24.08
2022-12-13T17:31:17.179Z,21.38
2022-12-13T17:33:44.515Z,23.90
2022-12-13T17:36:12.199Z,22.80
2022-12-13T17:38:42.239Z,22.67
2022-12-13T17:41:09.008Z,24.13
2022-12-13T17:43:36.068Z,22.23
2022-12-13T17:46:06.947Z,22.83
2022-12-13T17:48:39.898Z,22.48
2022-12-13T17:51:08.777Z,21.92
2022-12-13T17:53:36.209Z,19.92
2022-12-13T17:56:06.586Z,19.70
2022-12-13T18:02:55.963Z,22.90
2022-12-13T18:05:26.179Z,21.52
2022-12-13T18:07:53.026Z,21.52
2022-12-13T18:10:24.846Z,21.67
2022-12-13T18:12:54.662Z,21.10
2022-12-13T18:15:21.823Z,23.08
2022-12-13T18:18:10.687Z,21.38
2022-12-13T18:20:36.060Z,20.58
2022-12-13T18:23:02.879Z,23.15
2022-12-13T18:25:29.821Z,22.67
2022-12-13T18:28:00.824Z,20.52
2022-12-13T18:30:28.206Z,21.65
2022-12-13T18:32:54.986Z,24.08
2022-12-13T18:35:21.785Z,39.40
2022-12-13T18:37:48.608Z,39.65
2022-12-13T18:40:15.375Z,39.30
2022-12-13T18:42:42.166Z,26.35
2022-12-13T18:45:09.140Z,28.27
2022-12-13T18:47:35.920Z,27.95
2022-12-13T18:50:02.791Z,49.55
2022-12-13T18:52:29.528Z,31.20
2022-12-13T18:54:56.301Z,31.65
2022-12-13T18:57:23.035Z,31.00
2022-12-13T18:59:54.431Z,32.85
2022-12-13T19:02:22.020Z,28.63
2022-12-13T19:04:55.391Z,31.40
2022-12-13T19:07:22.906Z,32.25
2022-12-13T19:09:54.696Z,31.73
2022-12-13T19:12:22.302Z,33.50
2022-12-13T19:14:54.418Z,32.58
2022-12-13T19:17:21.975Z,31.05
2022-12-13T19:19:48.793Z,32.72
2022-12-13T19:22:15.961Z,31.90
2022-12-13T19:24:42.785Z,30.58
2022-12-13T19:27:09.539Z,30.55
2022-12-13T19:29:36.300Z,28.48
2022-12-13T19:32:03.693Z,29.35
2022-12-13T19:34:31.129Z,31.95
2022-12-13T19:37:02.924Z,30.13
2022-12-13T19:39:32.778Z,27.80
2022-12-13T19:41:59.517Z,28.10
2022-12-13T19:44:26.277Z,28.25
2022-12-13T19:46:53.386Z,27.95
2022-12-13T19:49:20.396Z,27.30
2022-12-13T19:51:47.149Z,31.48
2022-12-13T19:54:13.889Z,33.40
2022-12-13T19:56:40.618Z,36.80
2022-12-13T19:59:07.513Z,39.15
2022-12-13T20:01:34.380Z,35.58
2022-12-13T20:04:01.718Z,35.30
2022-12-13T20:06:28.556Z,34.83
2022-12-13T20:08:55.298Z,34.33
2022-12-13T20:11:23.071Z,37.38
2022-12-13T20:13:50.883Z,34.80
2022-12-13T20:16:19.697Z,33.20
2022-12-13T20:18:46.764Z,36.08
2022-12-13T20:21:14.788Z,32.75
2022-12-13T20:23:49.427Z,34.58
2022-12-13T20:26:18.293Z,37.80
2022-12-13T20:28:45.188Z,37.97
2022-12-13T20:31:19.247Z,49.42
2022-12-13T20:33:46.265Z,48.40
2022-12-13T20:36:26.214Z,38.42
2022-12-13T20:38:55.842Z,36.75
2022-12-13T20:41:23.228Z,37.92
2022-12-13T20:43:54.105Z,39.30
2022-12-13T20:46:21.094Z,41.55
2022-12-13T20:48:48.185Z,38.85
2022-12-13T20:51:16.619Z,34.90
2022-12-13T20:53:44.498Z,30.67
2022-12-13T20:56:13.178Z,30.75
2022-12-13T20:58:41.744Z,30.85
2022-12-13T21:01:09.967Z,33.35
2022-12-13T21:03:36.767Z,29.45
2022-12-13T21:06:03.632Z,32.30
2022-12-13T21:08:48.935Z,33.42
2022-12-13T21:11:24.853Z,32.58
2022-12-13T21:14:06.941Z,34.17
2022-12-13T21:16:45.348Z,29.85
2022-12-13T21:19:14.273Z,32.67
2022-12-13T21:21:41.116Z,34.08
2022-12-13T21:24:08.167Z,33.22
2022-12-13T21:26:36.256Z,33.45
2022-12-13T21:29:05.113Z,33.22
2022-12-13T21:31:31.938Z,35.08
2022-12-13T21:34:00.166Z,32.50
2022-12-13T21:36:28.465Z,34.15
2022-12-13T21:38:56.254Z,32.63
2022-12-13T21:41:23.173Z,32.28
2022-12-13T21:43:50.054Z,32.50
2022-12-13T21:46:18.597Z,33.35
2022-12-13T21:48:45.849Z,32.40
2022-12-13T21:51:14.202Z,31.90
2022-12-13T21:53:41.122Z,34.70
2022-12-13T21:56:27.351Z,37.72
2022-12-13T21:59:13.127Z,35.47
2022-12-13T22:02:07.968Z,34.10
2022-12-13T22:04:35.958Z,33.70
2022-12-13T22:07:03.374Z,32.22
2022-12-13T22:09:30.210Z,31.00
2022-12-13T22:12:00.135Z,28.73
2022-12-13T22:14:26.906Z,31.38
2022-12-13T22:16:53.764Z,34.38
2022-12-13T22:19:20.640Z,38.40
2022-12-13T22:21:47.452Z,36.20
2022-12-13T22:24:14.303Z,31.73
2022-12-13T22:26:41.225Z,37.13
2022-12-13T22:29:09.461Z,37.30
2022-12-13T22:31:36.488Z,36.20
2022-12-13T22:34:03.359Z,32.80
2022-12-13T22:36:30.151Z,35.40
2022-12-13T22:38:56.914Z,35.40
2022-12-13T22:41:23.729Z,39.38
2022-12-13T22:43:50.606Z,36.33
2022-12-13T22:46:18.624Z,36.33
2022-12-13T22:48:45.584Z,38.72
2022-12-13T22:51:16.480Z,35.10
2022-12-13T22:53:43.903Z,35.65
2022-12-13T22:56:12.781Z,34.40
2022-12-13T22:58:39.818Z,33.58
2022-12-13T23:01:14.615Z,34.40
2022-12-13T23:03:41.622Z,34.13
2022-12-13T23:06:22.264Z,32.08
2022-12-13T23:08:59.463Z,31.25
2022-12-13T23:11:45.551Z,30.27
2022-12-13T23:14:15.105Z,29.30
2022-12-13T23:16:42.460Z,31.05
2022-12-13T23:19:40.240Z,31.45
2022-12-13T23:21:57.863Z,32.42
2022-12-13T23:24:24.755Z,33.28
2022-12-13T23:26:51.492Z,35.10
2022-12-13T23:29:18.373Z,36.28
2022-12-13T23:31:48.425Z,34.88
2022-12-13T23:34:15.633Z,34.25
2022-12-13T23:36:42.516Z,33.55
2022-12-13T23:39:09.328Z,33.70
2022-12-13T23:41:36.151Z,34.83
2022-12-13T23:44:03.198Z,34.13
2022-12-13T23:46:34.135Z,32.67
2022-12-13T23:49:01.504Z,35.05
2022-12-13T23:51:28.457Z,37.30
2022-12-13T23:53:55.311Z,36.47
2022-12-13T23:56:22.458Z,35.10
2022-12-13T23:58:49.452Z,34.97
